createdAt,value
2023-03-25T00:01:26.074Z,3.80
2023-03-25T00:03:53.144Z,3.50
2023-03-25T00:06:19.676Z,14.47
2023-03-25T00:08:46.447Z,6.63
2023-03-25T00:11:13.159Z,8.23
2023-03-25T00:13:40.898Z,5.70
2023-03-25T00:16:10.084Z,2.00
2023-03-25T00:18:37.777Z,4.77
2023-03-25T00:21:05.322Z,3.07
2023-03-25T00:23:32.415Z,2.30
2023-03-25T00:26:02.190Z,7.23
2023-03-25T00:28:33.019Z,9.97
2023-03-25T00:31:01.168Z,4.43
2023-03-25T00:33:28.259Z,10.07
2023-03-25T00:35:59.352Z,3.67
2023-03-25T00:38:33.309Z,7.93
2023-03-25T00:41:10.664Z,8.50
2023-03-25T00:43:37.520Z,4.50
2023-03-25T00:46:04.488Z,9.10
2023-03-25T00:48:31.463Z,9.33
2023-03-25T00:50:58.045Z,10.73
2023-03-25T00:53:24.535Z,10.53
2023-03-25T00:55:51.133Z,7.77
2023-03-25T00:58:17.788Z,3.43
2023-03-25T01:00:44.388Z,5.43
2023-03-25T01:03:12.880Z,4.37
2023-03-25T01:05:41.691Z,3.17
2023-03-25T01:08:08.667Z,3.90
2023-03-25T01:10:36.505Z,6.73
2023-03-25T01:13:03.741Z,3.67
2023-03-25T01:15:30.462Z,1.80
2023-03-25T01:17:57.088Z,2.80
2023-03-25T01:20:24.204Z,2.87
2023-03-25T01:22:51.130Z,2.97
2023-03-25T01:25:18.028Z,3.27
2023-03-25T01:27:44.545Z,1.27
2023-03-25T01:30:12.885Z,1.00
2023-03-25T01:32:40.295Z,5.10
2023-03-25T01:35:07.593Z,4.43
2023-03-25T01:37:36.821Z,1.73
2023-03-25T01:40:05.348Z,1.43
2023-03-25T01:42:32.299Z,2.70
2023-03-25T01:45:13.868Z,2.20
2023-03-25T01:47:40.946Z,3.43
2023-03-25T01:50:08.832Z,1.30
2023-03-25T01:52:35.534Z,2.60
2023-03-25T01:55:02.914Z,3.20
2023-03-25T01:57:31.543Z,2.03
2023-03-25T01:59:58.168Z,2.03
2023-03-25T02:02:36.380Z,1.07
2023-03-25T02:05:05.587Z,2.30
2023-03-25T02:07:33.672Z,4.40
2023-03-25T02:10:02.661Z,1.43
2023-03-25T02:12:29.243Z,2.70
2023-03-25T02:14:57.342Z,1.20
2023-03-25T02:17:42.346Z,3.67
2023-03-25T02:20:34.642Z,8.03
2023-03-25T02:23:22.011Z,11.43
2023-03-25T02:26:07.301Z,5.97
2023-03-25T02:28:47.205Z,9.33
2023-03-25T02:31:28.548Z,3.97
2023-03-25T02:34:14.229Z,6.10
2023-03-25T02:36:41.419Z,8.60
2023-03-25T02:39:11.820Z,14.13
2023-03-25T02:41:47.795Z,9.30
2023-03-25T02:44:17.900Z,4.50
2023-03-25T02:46:55.913Z,2.83
2023-03-25T02:49:29.702Z,3.80
2023-03-25T02:52:01.827Z,2.80
2023-03-25T02:54:30.543Z,3.60
2023-03-25T02:56:58.875Z,4.33
2023-03-25T02:59:33.175Z,5.90
2023-03-25T03:02:02.484Z,7.80
2023-03-25T03:04:30.017Z,13.27
2023-03-25T03:06:57.208Z,7.30
2023-03-25T03:09:32.767Z,7.67
2023-03-25T03:12:14.979Z,7.33
2023-03-25T03:14:56.780Z,9.53
2023-03-25T03:17:41.481Z,3.83
2023-03-25T03:20:19.710Z,5.90
2023-03-25T03:22:53.152Z,10.43
2023-03-25T03:25:30.533Z,4.03
2023-03-25T03:28:02.036Z,2.67
2023-03-25T03:30:38.282Z,6.60
2023-03-25T03:33:16.956Z,6.17
2023-03-25T03:35:50.287Z,4.70
2023-03-25T03:38:19.307Z,8.77
2023-03-25T03:40:49.430Z,5.93
2023-03-25T03:43:19.144Z,5.70
2023-03-25T03:45:51.821Z,7.20
2023-03-25T03:48:23.771Z,3.07
2023-03-25T03:50:52.966Z,16.73
2023-03-25T03:53:52.571Z,11.43
2023-03-25T03:56:22.095Z,6.77
2023-03-25T03:58:53.135Z,7.77
2023-03-25T04:01:30.294Z,1.67
2023-03-25T04:03:59.240Z,3.83
2023-03-25T04:06:35.583Z,2.20
2023-03-25T04:09:18.763Z,8.40
2023-03-25T04:11:54.388Z,1.80
2023-03-25T04:14:21.291Z,4.27
2023-03-25T04:16:48.219Z,16.07
2023-03-25T04:19:18.311Z,1.60
2023-03-25T04:21:45.671Z,9.60
2023-03-25T04:24:12.284Z,3.80
2023-03-25T04:26:38.896Z,6.83
2023-03-25T04:29:05.642Z,5.57
2023-03-25T04:31:32.351Z,9.83
2023-03-25T04:34:00.402Z,1.37
2023-03-25T04:36:33.573Z,4.40
2023-03-25T04:39:00.118Z,2.20
2023-03-25T04:41:28.954Z,8.40
2023-03-25T04:43:55.764Z,6.33
2023-03-25T04:46:22.616Z,3.43
2023-03-25T04:48:49.507Z,7.10
2023-03-25T04:51:16.133Z,8.93
2023-03-25T04:53:42.939Z,2.40
2023-03-25T04:56:16.031Z,3.93
2023-03-25T04:58:43.540Z,3.30
2023-03-25T05:01:24.792Z,3.63
2023-03-25T05:03:51.368Z,6.50
2023-03-25T05:06:18.011Z,3.43
2023-03-25T05:08:44.471Z,5.30
2023-03-25T05:11:10.965Z,3.13
2023-03-25T05:13:37.454Z,8.17
2023-03-25T05:16:04.227Z,7.30
2023-03-25T05:18:31.181Z,4.77
2023-03-25T05:20:57.795Z,8.10
2023-03-25T05:23:24.767Z,8.67
2023-03-25T05:25:51.619Z,6.60
2023-03-25T05:28:18.571Z,23.00
2023-03-25T05:30:46.066Z,2.13
2023-03-25T05:33:16.755Z,12.93
2023-03-25T05:35:43.841Z,26.70
2023-03-25T05:38:13.848Z,8.20
2023-03-25T05:40:40.415Z,12.37
2023-03-25T05:43:07.110Z,16.97
2023-03-25T05:45:36.104Z,15.97
2023-03-25T05:48:03.252Z,8.37
2023-03-25T05:50:30.137Z,5.90
2023-03-25T05:52:57.464Z,10.03
2023-03-25T05:55:24.443Z,19.93
2023-03-25T05:57:50.988Z,13.37
2023-03-25T06:00:19.316Z,9.37
2023-03-25T06:02:46.109Z,27.47
2023-03-25T06:05:14.050Z,10.17
2023-03-25T06:07:42.726Z,11.23
2023-03-25T06:10:13.191Z,13.17
2023-03-25T06:12:39.832Z,12.47
2023-03-25T06:15:08.337Z,18.20
2023-03-25T06:17:38.465Z,6.40
2023-03-25T06:20:10.677Z,10.20
2023-03-25T06:22:38.010Z,8.13
2023-03-25T06:25:04.897Z,16.37
2023-03-25T06:27:34.780Z,6.07
2023-03-25T06:30:01.950Z,9.40
2023-03-25T06:32:28.432Z,4.50
2023-03-25T06:34:55.130Z,9.07
2023-03-25T06:37:21.936Z,5.83
2023-03-25T06:39:49.808Z,4.90
2023-03-25T06:42:21.108Z,12.63
2023-03-25T06:45:10.851Z,9.20
2023-03-25T06:48:10.086Z,3.47
2023-03-25T06:50:36.639Z,10.23
2023-03-25T06:53:03.600Z,6.37
2023-03-25T06:55:30.240Z,3.70
2023-03-25T06:57:57.226Z,9.57
2023-03-25T07:00:24.817Z,5.10
2023-03-25T07:02:51.420Z,9.10
2023-03-25T07:05:18.542Z,13.13
2023-03-25T07:07:45.624Z,9.60
2023-03-25T07:10:13.018Z,11.83
2023-03-25T07:12:40.408Z,7.63
2023-03-25T07:15:07.259Z,11.43
2023-03-25T07:17:35.074Z,14.07
2023-03-25T07:20:01.826Z,8.17
2023-03-25T07:22:28.578Z,5.23
2023-03-25T07:24:55.440Z,12.97
2023-03-25T07:27:22.042Z,13.00
2023-03-25T07:29:57.696Z,12.40
2023-03-25T07:32:24.468Z,5.70
2023-03-25T07:34:51.348Z,11.93
2023-03-25T07:37:18.010Z,10.23
2023-03-25T07:39:44.688Z,7.53
2023-03-25T07:42:11.207Z,15.60
2023-03-25T07:44:59.990Z,16.60
2023-03-25T07:47:28.122Z,5.93
2023-03-25T07:49:54.618Z,7.80
2023-03-25T07:52:22.220Z,12.37
2023-03-25T07:54:48.914Z,9.00
2023-03-25T07:57:15.457Z,4.37
2023-03-25T07:59:42.050Z,7.17
2023-03-25T08:02:10.388Z,7.20
2023-03-25T08:04:37.188Z,10.33
2023-03-25T08:07:03.987Z,7.70
2023-03-25T08:09:30.707Z,10.03
2023-03-25T08:11:57.234Z,5.77
2023-03-25T08:14:24.109Z,8.23
2023-03-25T08:16:50.773Z,5.07
2023-03-25T08:19:17.266Z,13.53
2023-03-25T08:21:43.794Z,10.50
2023-03-25T08:24:11.476Z,8.50
2023-03-25T08:26:38.686Z,5.57
2023-03-25T08:29:05.274Z,12.63
2023-03-25T08:31:32.216Z,20.00
2023-03-25T08:33:59.569Z,7.43
2023-03-25T08:36:26.129Z,12.50
2023-03-25T08:38:52.720Z,7.30
2023-03-25T08:41:19.400Z,9.57
2023-03-25T08:43:46.174Z,10.60
2023-03-25T08:46:12.943Z,14.07
2023-03-25T08:48:39.559Z,15.77
2023-03-25T08:51:06.528Z,11.20
2023-03-25T08:53:33.247Z,14.33
2023-03-25T08:56:00.242Z,5.20
2023-03-25T08:58:26.992Z,20.20
2023-03-25T09:00:54.477Z,15.73
2023-03-25T09:03:24.782Z,11.40
2023-03-25T09:05:51.452Z,13.97
2023-03-25T09:08:18.176Z,6.13
2023-03-25T09:10:44.841Z,11.73
2023-03-25T09:13:11.554Z,16.20
2023-03-25T09:15:38.178Z,7.70
2023-03-25T09:18:05.912Z,13.07
2023-03-25T09:20:33.014Z,14.17
2023-03-25T09:22:59.551Z,11.80
2023-03-25T09:25:26.046Z,12.17
2023-03-25T09:27:52.548Z,14.40
2023-03-25T09:30:19.379Z,8.10
2023-03-25T09:32:46.153Z,10.43
2023-03-25T09:35:12.639Z,6.30
2023-03-25T09:37:39.144Z,13.17
2023-03-25T09:40:06.143Z,8.93
2023-03-25T09:42:45.106Z,16.07
2023-03-25T09:45:21.417Z,12.67
2023-03-25T09:47:53.736Z,14.37
2023-03-25T09:50:21.072Z,9.30
2023-03-25T09:52:51.014Z,3.63
2023-03-25T09:55:20.984Z,7.40
2023-03-25T09:57:49.412Z,17.90
2023-03-25T10:00:22.274Z,11.93
2023-03-25T10:03:05.068Z,12.33
2023-03-25T10:05:31.900Z,6.50
2023-03-25T10:08:05.440Z,9.27
2023-03-25T10:10:51.823Z,12.03
2023-03-25T10:13:20.014Z,14.00
2023-03-25T10:15:54.899Z,17.73
2023-03-25T10:18:40.961Z,11.17
2023-03-25T10:21:07.531Z,8.17
2023-03-25T10:23:34.065Z,4.33
2023-03-25T10:26:03.093Z,5.00
2023-03-25T10:28:36.741Z,16.70
2023-03-25T10:31:04.227Z,11.17
2023-03-25T10:33:35.171Z,10.10
2023-03-25T10:36:03.000Z,7.70
2023-03-25T10:38:31.711Z,4.03
2023-03-25T10:41:17.092Z,10.93
2023-03-25T10:43:43.687Z,5.60
2023-03-25T10:46:22.621Z,13.97
2023-03-25T10:48:49.898Z,8.77
2023-03-25T10:51:18.184Z,6.00
2023-03-25T10:53:47.117Z,9.83
2023-03-25T10:56:15.599Z,9.53
2023-03-25T10:58:43.324Z,5.00
2023-03-25T11:01:12.042Z,13.13
2023-03-25T11:03:39.521Z,10.30
2023-03-25T11:06:06.685Z,9.77
2023-03-25T11:08:33.741Z,13.23
2023-03-25T11:11:01.251Z,8.90
2023-03-25T11:13:30.033Z,11.13
2023-03-25T11:16:02.035Z,11.70
2023-03-25T11:18:30.999Z,13.93
2023-03-25T11:21:00.934Z,32.20
2023-03-25T11:23:34.584Z,19.80
2023-03-25T11:26:18.855Z,16.03
2023-03-25T11:28:46.331Z,7.00
2023-03-25T11:31:21.390Z,5.53
2023-03-25T11:34:03.423Z,18.37
2023-03-25T11:36:32.117Z,8.30
2023-03-25T11:39:10.757Z,11.07
2023-03-25T11:41:38.107Z,12.10
2023-03-25T11:44:05.622Z,19.67
2023-03-25T11:46:34.021Z,13.13
2023-03-25T11:49:11.737Z,13.40
2023-03-25T11:51:38.277Z,15.37
2023-03-25T11:54:08.931Z,12.10
2023-03-25T11:56:37.403Z,4.60
2023-03-25T11:59:07.691Z,21.73
2023-03-25T12:01:40.592Z,10.73
2023-03-25T12:04:27.346Z,3.97
2023-03-25T12:06:54.117Z,10.20
2023-03-25T12:09:20.862Z,8.57
2023-03-25T12:11:53.162Z,20.33
2023-03-25T12:14:38.589Z,8.87
2023-03-25T12:17:10.715Z,10.27
2023-03-25T12:19:37.152Z,15.67
2023-03-25T12:22:03.693Z,11.37
2023-03-25T12:24:39.545Z,9.97
2023-03-25T12:27:07.456Z,10.63
2023-03-25T12:29:56.459Z,11.10
2023-03-25T12:32:39.767Z,16.57
2023-03-25T12:35:06.246Z,4.77
2023-03-25T12:37:49.640Z,8.67
2023-03-25T12:40:34.273Z,6.90
2023-03-25T12:43:11.256Z,10.90
2023-03-25T12:45:38.057Z,12.87
2023-03-25T12:48:10.737Z,21.17
2023-03-25T12:50:46.127Z,8.87
2023-03-25T12:53:19.563Z,16.20
2023-03-25T12:55:52.583Z,9.37
2023-03-25T12:58:24.965Z,9.97
2023-03-25T13:01:03.699Z,15.63
2023-03-25T13:03:53.340Z,9.93
2023-03-25T13:06:40.874Z,8.43
2023-03-25T13:09:26.541Z,15.27
2023-03-25T13:11:56.226Z,8.80
2023-03-25T13:14:44.838Z,8.33
2023-03-25T13:17:15.492Z,13.37
2023-03-25T13:19:44.385Z,17.33
2023-03-25T13:22:16.846Z,12.43
2023-03-25T13:24:49.828Z,9.20
2023-03-25T13:27:17.501Z,13.13
2023-03-25T13:29:46.447Z,7.30
2023-03-25T13:32:17.128Z,16.30
2023-03-25T13:34:55.931Z,4.97
2023-03-25T13:37:29.329Z,13.63
2023-03-25T13:40:14.403Z,7.63
2023-03-25T13:42:45.166Z,12.43
2023-03-25T13:45:17.870Z,9.57
2023-03-25T13:47:48.955Z,26.57
2023-03-25T13:50:26.876Z,5.73
2023-03-25T13:53:15.660Z,12.03
2023-03-25T13:55:49.190Z,11.57
2023-03-25T13:58:36.603Z,17.33
2023-03-25T14:01:29.683Z,15.03
2023-03-25T14:04:07.226Z,3.97
2023-03-25T14:06:52.804Z,20.27
2023-03-25T14:09:38.018Z,5.60
2023-03-25T14:12:23.955Z,10.50
2023-03-25T14:14:57.766Z,5.70
2023-03-25T14:17:25.174Z,7.67
2023-03-25T14:19:55.229Z,9.60
2023-03-25T14:22:23.193Z,9.03
2023-03-25T14:24:50.169Z,10.23
2023-03-25T14:27:29.058Z,8.73
2023-03-25T14:29:55.686Z,16.40
2023-03-25T14:32:22.486Z,7.43
2023-03-25T14:34:50.217Z,5.40
2023-03-25T14:37:18.400Z,16.13
2023-03-25T14:39:45.388Z,9.10
2023-03-25T14:42:23.497Z,11.93
2023-03-25T14:44:54.755Z,8.90
2023-03-25T14:47:33.897Z,11.93
2023-03-25T14:50:20.641Z,10.83
2023-03-25T14:52:51.997Z,19.30
2023-03-25T14:55:20.075Z,3.73
2023-03-25T14:57:47.457Z,10.07
2023-03-25T15:00:26.066Z,6.93
2023-03-25T15:03:00.088Z,4.47
2023-03-25T15:05:28.641Z,6.73
2023-03-25T15:07:56.743Z,13.63
2023-03-25T15:10:23.669Z,13.70
2023-03-25T15:12:52.963Z,8.17
2023-03-25T15:15:33.971Z,12.57
2023-03-25T15:18:01.827Z,4.87
2023-03-25T15:20:29.533Z,14.47
2023-03-25T15:23:15.107Z,17.23
2023-03-25T15:25:43.505Z,15.60
2023-03-25T15:28:13.439Z,21.00
2023-03-25T15:30:40.073Z,25.03
2023-03-25T15:33:06.885Z,15.37
2023-03-25T15:35:33.612Z,15.17
2023-03-25T15:38:05.594Z,13.33
2023-03-25T15:40:45.540Z,27.27
2023-03-25T15:43:15.430Z,22.10
2023-03-25T15:45:48.027Z,23.87
2023-03-25T15:48:33.714Z,15.23
2023-03-25T15:51:01.934Z,12.97
2023-03-25T15:53:42.823Z,19.40
2023-03-25T15:56:21.846Z,17.80
2023-03-25T15:58:58.565Z,15.33
2023-03-25T16:01:30.310Z,24.43
2023-03-25T16:04:18.946Z,11.30
2023-03-25T16:06:48.128Z,13.17
2023-03-25T16:09:20.447Z,19.70
2023-03-25T16:11:47.493Z,21.17
2023-03-25T16:14:16.146Z,7.73
2023-03-25T16:16:53.656Z,10.37
2023-03-25T16:19:22.801Z,9.90
2023-03-25T16:21:56.314Z,8.60
2023-03-25T16:24:25.087Z,10.53
2023-03-25T16:26:52.750Z,7.50
2023-03-25T16:29:25.776Z,4.73
2023-03-25T16:31:52.276Z,14.40
2023-03-25T16:34:19.498Z,10.90
2023-03-25T16:36:47.376Z,12.10
2023-03-25T16:39:14.905Z,14.43
2023-03-25T16:41:51.662Z,12.23
2023-03-25T16:44:24.029Z,10.33
2023-03-25T16:46:52.122Z,5.97
2023-03-25T16:49:30.947Z,3.70
2023-03-25T16:51:58.577Z,8.43
2023-03-25T16:54:33.648Z,9.33
2023-03-25T16:57:01.034Z,7.53
2023-03-25T16:59:29.332Z,18.47
2023-03-25T17:01:57.509Z,9.83
2023-03-25T17:04:30.068Z,6.93
2023-03-25T17:07:00.457Z,5.20
2023-03-25T17:09:34.042Z,10.90
2023-03-25T17:12:01.951Z,10.13
2023-03-25T17:14:30.811Z,11.47
2023-03-25T17:16:57.933Z,7.80
2023-03-25T17:19:28.804Z,11.60
2023-03-25T17:21:58.588Z,9.70
2023-03-25T17:24:25.612Z,7.10
2023-03-25T17:26:57.342Z,14.93
2023-03-25T17:29:24.055Z,9.63
2023-03-25T17:31:56.196Z,12.67
2023-03-25T17:34:24.406Z,6.80
2023-03-25T17:37:00.724Z,15.30
2023-03-25T17:39:29.266Z,5.80
2023-03-25T17:42:05.136Z,13.63
2023-03-25T17:44:33.817Z,22.07
2023-03-25T17:47:00.723Z,10.47
2023-03-25T17:49:27.611Z,24.07
2023-03-25T17:51:54.190Z,15.53
2023-03-25T17:54:21.016Z,26.73
2023-03-25T17:56:48.085Z,7.60
2023-03-25T17:59:15.095Z,29.13
2023-03-25T18:01:42.902Z,14.93
2023-03-25T18:04:09.883Z,19.50
2023-03-25T18:06:37.662Z,12.43
2023-03-25T18:09:06.577Z,18.93
2023-03-25T18:11:33.179Z,25.87
2023-03-25T18:13:59.712Z,14.70
2023-03-25T18:16:26.467Z,15.33
2023-03-25T18:18:53.088Z,16.10
2023-03-25T18:21:21.079Z,29.33
2023-03-25T18:23:48.639Z,27.83
2023-03-25T18:26:18.909Z,27.83
2023-03-25T18:28:46.241Z,27.60
2023-03-25T18:31:17.164Z,34.47
2023-03-25T18:33:46.446Z,26.87
2023-03-25T18:36:13.012Z,13.00
2023-03-25T18:38:39.677Z,17.97
2023-03-25T18:41:06.842Z,20.93
2023-03-25T18:43:33.469Z,16.53
2023-03-25T18:46:00.108Z,20.67
2023-03-25T18:48:27.092Z,19.43
2023-03-25T18:50:58.535Z,22.57
2023-03-25T18:53:26.648Z,10.97
2023-03-25T18:55:59.906Z,29.00
2023-03-25T18:58:28.796Z,31.07
2023-03-25T19:00:55.939Z,19.17
2023-03-25T19:03:31.346Z,21.43
2023-03-25T19:05:58.938Z,17.37
2023-03-25T19:08:27.812Z,17.37
2023-03-25T19:11:01.787Z,20.83
2023-03-25T19:13:35.005Z,15.63
2023-03-25T19:16:02.146Z,17.33
2023-03-25T19:18:31.256Z,17.90
2023-03-25T19:20:58.213Z,32.30
2023-03-25T19:23:25.000Z,25.27
2023-03-25T19:25:52.428Z,31.57
2023-03-25T19:28:20.475Z,20.70
2023-03-25T19:30:48.928Z,29.67
2023-03-25T19:33:16.393Z,15.00
2023-03-25T19:35:49.717Z,23.53
2023-03-25T19:38:19.416Z,11.63
2023-03-25T19:40:47.036Z,23.47
2023-03-25T19:43:13.920Z,21.43
2023-03-25T19:45:40.836Z,18.30
2023-03-25T19:48:07.552Z,25.87
2023-03-25T19:50:35.573Z,13.30
2023-03-25T19:53:03.007Z,34.73
2023-03-25T19:55:29.925Z,23.20
2023-03-25T19:57:56.706Z,26.60
2023-03-25T20:00:26.046Z,22.50
2023-03-25T20:02:58.894Z,16.77
2023-03-25T20:05:25.609Z,19.63
2023-03-25T20:07:52.745Z,17.50
2023-03-25T20:10:20.691Z,2.50
2023-03-25T20:12:49.606Z,13.80
2023-03-25T20:15:17.424Z,24.23
2023-03-25T20:17:44.559Z,16.47
2023-03-25T20:20:12.242Z,17.73
2023-03-25T20:22:40.716Z,20.53
2023-03-25T20:25:08.012Z,33.37
2023-03-25T20:27:34.852Z,24.47
2023-03-25T20:30:01.959Z,19.93
2023-03-25T20:32:39.918Z,23.00
2023-03-25T20:35:09.439Z,26.97
2023-03-25T20:37:37.208Z,25.03
2023-03-25T20:40:05.171Z,26.27
2023-03-25T20:42:32.108Z,18.37
2023-03-25T20:44:58.809Z,25.73
2023-03-25T20:47:25.772Z,15.83
2023-03-25T20:49:52.558Z,34.13
2023-03-25T20:52:19.753Z,23.23
2023-03-25T20:54:48.153Z,31.90
2023-03-25T20:57:15.054Z,20.33
2023-03-25T20:59:41.993Z,25.37
2023-03-25T21:02:10.129Z,31.47
2023-03-25T21:04:37.004Z,17.70
2023-03-25T21:07:03.864Z,20.30
2023-03-25T21:09:31.740Z,26.80
2023-03-25T21:11:58.671Z,12.33
2023-03-25T21:14:29.378Z,26.47
2023-03-25T21:16:56.481Z,30.87
2023-03-25T21:19:23.525Z,42.27
2023-03-25T21:21:50.295Z,21.17
2023-03-25T21:24:21.435Z,18.20
2023-03-25T21:26:49.177Z,32.20
2023-03-25T21:29:16.116Z,25.17
2023-03-25T21:31:42.866Z,12.53
2023-03-25T21:34:11.394Z,32.30
2023-03-25T21:36:37.948Z,22.50
2023-03-25T21:39:06.337Z,15.00
2023-03-25T21:41:32.968Z,18.63
2023-03-25T21:43:59.584Z,20.53
2023-03-25T21:46:27.904Z,26.13
2023-03-25T21:48:55.682Z,14.63
2023-03-25T21:51:22.297Z,24.03
2023-03-25T21:53:50.829Z,27.73
2023-03-25T21:56:20.073Z,16.23
2023-03-25T21:58:48.043Z,17.80
2023-03-25T22:01:16.946Z,32.13
2023-03-25T22:03:46.444Z,21.70
2023-03-25T22:06:15.293Z,24.37
2023-03-25T22:08:42.125Z,35.67
2023-03-25T22:11:08.858Z,23.97
2023-03-25T22:13:35.926Z,26.70
2023-03-25T22:16:02.959Z,21.03
2023-03-25T22:18:29.715Z,27.53
2023-03-25T22:21:05.569Z,26.03
2023-03-25T22:23:32.183Z,22.93
2023-03-25T22:25:59.939Z,23.20
2023-03-25T22:28:26.654Z,23.67
2023-03-25T22:30:53.500Z,33.47
2023-03-25T22:33:20.900Z,23.30
2023-03-25T22:35:47.800Z,15.23
2023-03-25T22:38:14.745Z,28.50
2023-03-25T22:40:41.728Z,17.10
2023-03-25T22:43:10.716Z,54.07
2023-03-25T22:45:37.461Z,38.17
2023-03-25T22:48:04.221Z,18.63
2023-03-25T22:50:31.624Z,23.37
2023-03-25T22:52:58.321Z,18.67
2023-03-25T22:55:25.077Z,35.00
2023-03-25T22:57:51.692Z,36.23
2023-03-25T23:00:18.628Z,23.00
2023-03-25T23:02:47.010Z,15.23
2023-03-25T23:05:14.739Z,38.00
2023-03-25T23:07:41.837Z,33.73
2023-03-25T23:10:09.144Z,34.50
2023-03-25T23:12:35.921Z,31.63
2023-03-25T23:15:02.493Z,48.37
2023-03-25T23:17:29.299Z,25.23
2023-03-25T23:19:56.020Z,37.20
2023-03-25T23:22:22.719Z,37.93
2023-03-25T23:24:49.565Z,16.17
2023-03-25T23:27:16.291Z,35.00
2023-03-25T23:29:43.074Z,19.03
2023-03-25T23:32:09.878Z,26.80
2023-03-25T23:34:36.734Z,36.03
2023-03-25T23:37:03.280Z,38.43
2023-03-25T23:39:30.507Z,36.63
2023-03-25T23:41:57.256Z,41.60
2023-03-25T23:44:23.787Z,47.53
2023-03-25T23:46:53.500Z,33.00
2023-03-25T23:49:20.192Z,35.83
2023-03-25T23:51:47.389Z,33.13
2023-03-25T23:54:14.826Z,55.00
2023-03-25T23:56:42.355Z,19.97
2023-03-25T23:59:09.235Z,34.80
